Time;durP1;ratioP1;P1;durP2;ratioP2;P2;SDS_P1;SDS_P2;PMS_P1;PMS_P2;Temp;Humidity;BMP_temperature;BMP_pressure;BME280_temperature;BME280_humidity;BME280_pressure;Samples;Min_cycle;Max_cycle;Signal;HPM_P1;HPM_P2
2022/03/18 00:02:14;;;;;;;800.37;755.10;;;2.50;99.90;;;;;;5045930;28;20464;-82
2022/03/18 00:04:41;;;;;;;809.00;761.83;;;2.40;99.90;;;;;;5045699;28;20487;-82
2022/03/18 00:07:09;;;;;;;858.87;806.60;;;2.30;99.90;;;;;;5047572;28;20460;-82
2022/03/18 00:09:35;;;;;;;857.27;803.87;;;2.30;99.90;;;;;;5047659;28;20466;-82
2022/03/18 00:12:06;;;;;;;868.37;813.17;;;2.20;99.90;;;;;;5045569;28;20455;-83
2022/03/18 00:14:33;;;;;;;879.03;818.00;;;2.10;99.90;;;;;;5051297;28;20452;-82
2022/03/18 00:17:00;;;;;;;883.73;819.47;;;2.20;99.90;;;;;;5049406;28;20479;-83
2022/03/18 00:19:27;;;;;;;881.27;813.40;;;2.20;99.90;;;;;;5051473;28;20456;-83
2022/03/18 00:22:00;;;;;;;876.73;808.50;;;2.20;99.90;;;;;;5049301;28;20467;-83
2022/03/18 00:24:26;;;;;;;872.97;804.63;;;2.20;99.90;;;;;;5051229;28;20899;-82
2022/03/18 00:26:53;;;;;;;874.93;806.77;;;2.10;99.90;;;;;;5050675;28;20476;-83
2022/03/18 00:29:21;;;;;;;889.10;820.73;;;2.00;99.90;;;;;;5048826;28;20448;-82
2022/03/18 00:31:48;;;;;;;897.30;826.47;;;2.00;99.90;;;;;;5051604;28;20452;-82
2022/03/18 00:34:15;;;;;;;894.17;823.50;;;1.80;99.90;;;;;;5052179;28;20534;-82
2022/03/18 00:36:42;;;;;;;887.60;817.53;;;1.80;99.90;;;;;;5056932;22;20492;-79
2022/03/18 00:39:08;;;;;;;927.17;854.57;;;1.80;99.90;;;;;;5035286;28;21022;-81
2022/03/18 00:41:35;;;;;;;912.03;838.70;;;1.70;99.90;;;;;;5036117;28;20463;-79
2022/03/18 00:44:02;;;;;;;900.73;828.17;;;1.70;99.90;;;;;;5035163;28;20483;-79
2022/03/18 00:46:30;;;;;;;911.13;837.63;;;1.60;99.90;;;;;;5035425;28;20476;-79
2022/03/18 00:52:03;;;;;;;914.70;840.90;;;1.50;99.90;;;;;;5035545;28;20491;-79
2022/03/18 00:54:30;;;;;;;925.37;849.10;;;1.40;99.90;;;;;;5035916;28;20439;-79
2022/03/18 00:56:57;;;;;;;929.57;851.10;;;1.40;99.90;;;;;;5035376;28;21049;-79
2022/03/18 00:59:24;;;;;;;942.87;861.43;;;1.50;99.90;;;;;;5035526;28;20451;-79
2022/03/18 01:01:52;;;;;;;919.27;839.80;;;1.60;99.90;;;;;;5035635;28;20543;-79
2022/03/18 01:04:20;;;;;;;934.97;854.27;;;1.60;99.90;;;;;;5035295;28;20547;-79
2022/03/18 01:06:46;;;;;;;930.60;848.63;;;1.50;99.90;;;;;;5035128;28;20522;-79
2022/03/18 01:09:13;;;;;;;943.63;861.57;;;1.40;99.90;;;;;;5035347;28;20456;-80
2022/03/18 01:11:40;;;;;;;951.00;866.90;;;1.30;99.90;;;;;;5035634;28;20456;-79
2022/03/18 01:14:07;;;;;;;920.53;838.57;;;1.40;99.90;;;;;;5035193;28;20949;-79
2022/03/18 01:16:34;;;;;;;922.87;841.10;;;1.40;99.90;;;;;;5034929;28;20484;-79
2022/03/18 01:19:02;;;;;;;918.67;838.33;;;1.40;99.90;;;;;;5035052;28;20453;-80
2022/03/18 01:21:28;;;;;;;923.77;841.90;;;1.40;99.90;;;;;;5035118;28;20448;-79
2022/03/18 01:23:55;;;;;;;933.70;851.30;;;1.40;99.90;;;;;;5035034;28;20444;-79
2022/03/18 01:26:24;;;;;;;942.73;863.13;;;1.40;99.90;;;;;;5035425;28;20844;-79
2022/03/18 01:28:50;;;;;;;939.10;857.07;;;1.40;99.90;;;;;;5035122;28;20498;-79
2022/03/18 01:31:17;;;;;;;947.00;864.83;;;1.30;99.90;;;;;;5035019;28;20455;-79
2022/03/18 01:33:44;;;;;;;957.13;874.50;;;1.40;99.90;;;;;;5035083;28;20480;-79
2022/03/18 01:36:13;;;;;;;953.63;870.37;;;1.40;99.90;;;;;;5034883;28;20484;-79
2022/03/18 01:38:40;;;;;;;946.70;865.00;;;1.40;99.90;;;;;;5034825;28;20456;-79
2022/03/18 01:41:07;;;;;;;941.27;859.30;;;1.40;99.90;;;;;;5034877;28;20452;-79
2022/03/18 01:43:38;;;;;;;940.97;860.37;;;1.30;99.90;;;;;;5035046;28;20479;-79
2022/03/18 01:46:05;;;;;;;949.20;867.40;;;1.20;99.90;;;;;;5034645;28;21001;-79
2022/03/18 01:48:31;;;;;;;944.10;860.60;;;1.20;99.90;;;;;;5034929;28;20452;-79
2022/03/18 01:50:58;;;;;;;946.63;862.80;;;1.20;99.90;;;;;;5034543;28;20975;-78
2022/03/18 01:53:26;;;;;;;945.70;862.40;;;1.20;99.90;;;;;;5034923;28;20467;-79
2022/03/18 01:55:55;;;;;;;957.13;872.33;;;1.20;99.90;;;;;;5034486;28;20472;-79
2022/03/18 01:58:22;;;;;;;965.80;882.10;;;1.40;99.90;;;;;;5034664;28;20487;-79
2022/03/18 02:00:49;;;;;;;964.03;877.33;;;1.20;99.90;;;;;;5034362;28;20463;-80
2022/03/18 02:03:15;;;;;;;950.67;863.43;;;1.30;99.90;;;;;;5034602;28;20455;-79
2022/03/18 02:05:43;;;;;;;948.90;862.17;;;1.30;99.90;;;;;;5034604;28;20472;-79
2022/03/18 02:08:10;;;;;;;964.37;876.47;;;1.10;99.90;;;;;;5034439;28;20458;-79
2022/03/18 02:10:38;;;;;;;964.33;874.47;;;1.10;99.90;;;;;;5033965;28;20452;-79
2022/03/18 02:13:05;;;;;;;970.80;879.37;;;1.10;99.90;;;;;;5034515;28;20452;-79
2022/03/18 02:15:32;;;;;;;973.70;881.90;;;1.10;99.90;;;;;;5033884;28;20481;-79
2022/03/18 02:17:58;;;;;;;963.07;871.07;;;1.10;99.90;;;;;;5034102;28;20463;-79
2022/03/18 02:20:25;;;;;;;999.10;906.53;;;1.00;99.90;;;;;;5033428;28;20448;-79
2022/03/18 02:22:53;;;;;;;1015.13;919.93;;;1.00;99.90;;;;;;5033855;28;20456;-80
2022/03/18 02:25:20;;;;;;;1013.37;920.10;;;1.10;99.90;;;;;;5033389;28;20444;-79
2022/03/18 02:27:56;;;;;;;1008.90;916.23;;;1.10;99.90;;;;;;5033869;28;20463;-79
2022/03/18 02:30:22;;;;;;;1011.83;917.57;;;1.00;99.90;;;;;;5033607;28;20452;-79
2022/03/18 02:32:49;;;;;;;1006.03;912.90;;;1.10;99.90;;;;;;5033353;28;20452;-79
2022/03/18 02:35:16;;;;;;;998.13;904.37;;;1.20;99.90;;;;;;5032712;28;20476;-77
2022/03/18 02:37:44;;;;;;;977.57;888.07;;;1.30;99.90;;;;;;5033270;28;20467;-81
2022/03/18 02:40:15;;;;;;;969.77;885.07;;;1.40;99.90;;;;;;5033184;28;20554;-79
2022/03/18 02:42:42;;;;;;;939.87;859.27;;;1.40;99.90;;;;;;5033050;28;20459;-79
2022/03/18 02:45:10;;;;;;;925.40;845.27;;;1.40;99.90;;;;;;5033237;28;20459;-79
2022/03/18 02:47:37;;;;;;;925.17;847.40;;;1.50;99.90;;;;;;5033061;28;20484;-79
2022/03/18 02:50:05;;;;;;;942.33;864.10;;;1.40;99.90;;;;;;5032955;28;20805;-79
2022/03/18 02:52:32;;;;;;;932.30;853.20;;;1.20;99.90;;;;;;5033299;28;20816;-79
2022/03/18 02:54:59;;;;;;;941.57;861.43;;;1.20;99.90;;;;;;5032938;28;20852;-80
2022/03/18 02:57:28;;;;;;;937.37;855.67;;;1.20;99.90;;;;;;5032876;28;20472;-79
2022/03/18 02:59:55;;;;;;;932.83;851.13;;;1.20;99.90;;;;;;5032963;28;20452;-79
2022/03/18 03:02:22;;;;;;;956.40;872.10;;;1.20;99.90;;;;;;5032875;28;20945;-79
2022/03/18 03:10:17;;;;;;;976.87;890.40;;;1.10;99.90;;;;;;5032767;28;20898;-79
2022/03/18 03:12:45;;;;;;;974.80;888.23;;;1.00;99.90;;;;;;5032320;28;20456;-79
2022/03/18 03:15:12;;;;;;;990.30;903.60;;;1.10;99.90;;;;;;5032279;28;20480;-79
2022/03/18 03:17:38;;;;;;;996.13;907.40;;;0.90;99.90;;;;;;5032146;28;20996;-79
2022/03/18 03:20:08;;;;;;;997.83;906.93;;;0.90;99.90;;;;;;5032421;28;20960;-79
2022/03/18 03:22:35;;;;;;;983.63;894.60;;;0.90;99.90;;;;;;5032606;28;20458;-79
2022/03/18 03:25:02;;;;;;;970.63;885.33;;;0.70;99.90;;;;;;5032830;28;20457;-78
2022/03/18 03:27:30;;;;;;;978.47;891.67;;;0.60;99.90;;;;;;5033259;28;20558;-78
2022/03/18 03:29:59;;;;;;;979.38;892.15;;;0.50;99.90;;;;;;5033214;28;20506;-78
2022/03/18 03:32:27;;;;;;;999.23;909.93;;;0.40;99.90;;;;;;5032877;28;20213;-79
2022/03/18 03:35:10;;;;;;;993.27;905.47;;;0.40;99.90;;;;;;5032410;28;20559;-80
2022/03/18 03:37:37;;;;;;;985.73;896.83;;;0.30;99.90;;;;;;5032144;28;20520;-79
2022/03/18 03:40:05;;;;;;;984.50;896.13;;;0.30;99.90;;;;;;5032457;28;20531;-79
2022/03/18 03:42:32;;;;;;;983.40;894.43;;;0.20;99.90;;;;;;5032457;28;20812;-79
2022/03/18 03:45:00;;;;;;;995.37;905.87;;;0.20;99.90;;;;;;5032438;28;20808;-79
2022/03/18 03:47:27;;;;;;;1007.93;917.67;;;0.20;99.90;;;;;;5032004;28;20472;-79
2022/03/18 03:49:53;;;;;;;1000.20;909.47;;;0.00;99.90;;;;;;5032017;28;20464;-79
2022/03/18 03:52:20;;;;;;;1006.63;916.03;;;0.00;99.90;;;;;;5032681;28;20573;-79
2022/03/18 03:54:47;;;;;;;1000.83;912.83;;;-0.10;99.90;;;;;;5032074;28;20481;-79
2022/03/18 03:57:14;;;;;;;997.93;910.13;;;-0.20;99.90;;;;;;5032339;28;20476;-78
2022/03/18 03:59:40;;;;;;;994.93;907.43;;;0.00;99.90;;;;;;5032266;28;20460;-79
2022/03/18 04:02:11;;;;;;;1004.50;914.70;;;-0.10;99.90;;;;;;5032413;28;20456;-80
2022/03/18 04:04:38;;;;;;;1012.17;922.23;;;-0.10;99.90;;;;;;5032173;28;20444;-79
2022/03/18 04:07:05;;;;;;;999.72;910.78;;;-0.20;99.90;;;;;;5032238;28;20503;-79
2022/03/18 04:09:32;;;;;;;1014.03;923.58;;;-0.20;99.90;;;;;;5031914;28;20696;-79
2022/03/18 04:11:59;;;;;;;1010.70;921.77;;;-0.10;99.90;;;;;;5032048;28;20209;-79
2022/03/18 04:14:26;;;;;;;997.57;910.47;;;-0.20;99.90;;;;;;5032165;28;20483;-79
2022/03/18 04:16:53;;;;;;;999.60;911.77;;;-0.30;99.90;;;;;;5032061;28;20475;-79
2022/03/18 04:19:21;;;;;;;991.63;905.87;;;-0.30;99.90;;;;;;5031907;28;20456;-79
2022/03/18 04:21:47;;;;;;;1001.93;915.33;;;-0.40;99.90;;;;;;5031976;28;20456;-79
2022/03/18 04:24:14;;;;;;;994.77;907.57;;;-0.40;99.90;;;;;;5031742;28;20984;-79
2022/03/18 04:26:41;;;;;;;991.07;905.40;;;-0.40;99.90;;;;;;5031856;28;20468;-79
2022/03/18 04:29:08;;;;;;;996.05;909.40;;;-0.50;99.90;;;;;;5031942;28;20452;-79
2022/03/18 04:31:35;;;;;;;993.58;905.10;;;-0.50;99.90;;;;;;5032081;28;20194;-79
2022/03/18 04:34:03;;;;;;;1004.53;915.77;;;-0.50;99.90;;;;;;5032315;28;20213;-79
2022/03/18 04:36:31;;;;;;;1008.95;921.20;;;-0.50;99.90;;;;;;5031756;28;20488;-80
2022/03/18 04:38:58;;;;;;;1010.47;921.72;;;-0.50;99.90;;;;;;5031579;28;20201;-79
2022/03/18 04:41:24;;;;;;;1023.45;932.35;;;-0.60;99.90;;;;;;5031411;28;20201;-79
2022/03/18 04:43:51;;;;;;;1022.93;933.27;;;-0.60;99.90;;;;;;5031693;28;20202;-79
2022/03/18 04:46:18;;;;;;;1030.43;942.10;;;-0.40;99.90;;;;;;5031974;28;20538;-78
2022/03/18 04:48:45;;;;;;;1015.33;927.93;;;-0.60;99.90;;;;;;5032399;28;20467;-78
2022/03/18 04:51:11;;;;;;;1012.75;925.92;;;-0.60;99.90;;;;;;5031734;28;20452;-79
2022/03/18 04:53:40;;;;;;;1004.45;918.53;;;-0.60;99.90;;;;;;5031742;28;20694;-79
2022/03/18 04:57:15;;;;;;;992.40;907.97;;;-0.70;99.90;;;;;;5031708;28;20221;-79
2022/03/18 04:58:54;;;;;;;987.97;905.80;;;-0.70;99.90;;;;;;5033702;28;20288;-79
2022/03/18 05:01:21;;;;;;;993.55;909.17;;;-0.70;99.90;;;;;;5035845;28;20452;-79
2022/03/18 05:03:48;;;;;;;1004.80;920.50;;;-0.70;99.90;;;;;;5035466;28;20202;-79
2022/03/18 05:06:15;;;;;;;987.67;901.65;;;-0.80;99.90;;;;;;5034968;28;20221;-79
2022/03/18 05:08:43;;;;;;;980.47;896.83;;;-0.70;99.90;;;;;;5034864;28;20208;-79
2022/03/18 05:11:09;;;;;;;984.15;901.22;;;-0.70;99.90;;;;;;5034911;28;20198;-79
2022/03/18 05:13:36;;;;;;;993.10;908.93;;;-0.60;99.90;;;;;;5035359;28;20202;-79
2022/03/18 05:16:03;;;;;;;996.10;912.00;;;-0.60;99.90;;;;;;5035070;28;20495;-79
2022/03/18 05:18:30;;;;;;;983.77;903.30;;;-0.60;99.90;;;;;;5035023;28;20201;-79
2022/03/18 05:20:57;;;;;;;997.97;918.50;;;-0.70;99.90;;;;;;5035292;28;20449;-78
2022/03/18 05:23:24;;;;;;;1000.57;921.30;;;-0.80;99.90;;;;;;5035189;28;20460;-79
2022/03/18 05:25:52;;;;;;;998.28;917.70;;;-1.00;99.90;;;;;;5034961;28;20518;-79
2022/03/18 05:28:18;;;;;;;1001.13;919.17;;;-0.90;99.90;;;;;;5035062;28;20197;-79
2022/03/18 05:30:45;;;;;;;1013.03;928.03;;;-0.90;99.90;;;;;;5034890;28;20193;-79
2022/03/18 05:33:12;;;;;;;1001.95;917.00;;;-1.00;99.90;;;;;;5034845;28;20197;-79
2022/03/18 05:35:39;;;;;;;996.85;913.30;;;-0.80;99.90;;;;;;5034434;28;20260;-79
2022/03/18 05:38:06;;;;;;;994.30;913.08;;;-0.90;99.90;;;;;;5035068;28;20185;-78
2022/03/18 05:40:33;;;;;;;1000.40;918.47;;;-0.90;99.90;;;;;;5034721;28;20213;-79
2022/03/18 05:43:01;;;;;;;1002.92;920.60;;;-0.80;99.90;;;;;;5034620;28;20288;-78
2022/03/18 05:45:28;;;;;;;993.03;908.95;;;-0.90;99.90;;;;;;5035253;28;20615;-78
2022/03/18 05:47:54;;;;;;;986.25;905.65;;;-0.90;99.90;;;;;;5034983;28;20204;-78
2022/03/18 05:50:23;;;;;;;982.88;901.65;;;-1.00;99.90;;;;;;5035125;28;20202;-79
2022/03/18 05:52:49;;;;;;;994.60;913.40;;;-1.10;99.90;;;;;;5034862;28;20667;-78
2022/03/18 05:55:16;;;;;;;988.28;909.28;;;-1.10;99.90;;;;;;5034676;28;20479;-78
2022/03/18 05:57:43;;;;;;;982.05;902.53;;;-1.10;99.90;;;;;;5034529;28;20201;-79
2022/03/18 06:00:14;;;;;;;979.25;899.70;;;-1.10;99.90;;;;;;5034293;28;20198;-79
2022/03/18 06:02:42;;;;;;;978.40;901.05;;;-1.00;99.90;;;;;;5034229;28;20576;-79
2022/03/18 06:05:10;;;;;;;980.95;903.08;;;-1.20;99.90;;;;;;5033844;28;20272;-79
2022/03/18 06:11:48;;;;;;;965.17;888.63;;;-1.00;99.90;;;;;;5034206;28;20602;-79
2022/03/18 06:13:28;;;;;;;971.55;894.17;;;-1.10;99.90;;;;;;5034529;28;20676;-80
2022/03/18 06:15:59;;;;;;;978.08;899.72;;;-1.10;99.90;;;;;;5034893;28;20221;-80
2022/03/18 06:18:27;;;;;;;995.47;912.78;;;-1.00;99.90;;;;;;5035322;28;20182;-80
2022/03/18 06:20:56;;;;;;;975.55;895.53;;;-0.80;99.90;;;;;;5034945;28;20236;-80
2022/03/18 06:23:23;;;;;;;975.00;894.83;;;-0.90;99.90;;;;;;5036235;28;20202;-80
2022/03/18 06:28:42;;;;;;;989.45;905.22;;;-0.80;99.90;;;;;;5032151;28;20190;-80
2022/03/18 06:31:24;;;;;;;997.65;911.28;;;-0.70;99.90;;;;;;5035160;28;20285;-80
2022/03/18 06:33:58;;;;;;;1005.93;918.13;;;-0.70;99.90;;;;;;5035031;28;20205;-79
2022/03/18 06:36:25;;;;;;;1001.88;915.50;;;-0.30;99.90;;;;;;5051759;22;20487;-83
2022/03/18 06:38:51;;;;;;;991.78;905.28;;;-0.30;99.90;;;;;;5033718;28;20669;-83
2022/03/18 06:41:19;;;;;;;984.88;899.38;;;-0.10;99.90;;;;;;5035414;28;20205;-82
2022/03/18 06:43:46;;;;;;;991.57;905.63;;;0.00;99.90;;;;;;5034563;28;20251;-81
2022/03/18 06:46:14;;;;;;;979.90;894.07;;;0.00;99.90;;;;;;5035173;28;20850;-82
2022/03/18 06:48:41;;;;;;;986.95;899.15;;;0.20;99.90;;;;;;5035413;28;20456;-82
2022/03/18 06:51:07;;;;;;;983.87;895.43;;;0.20;99.90;;;;;;5033048;28;20567;-83
2022/03/18 06:53:34;;;;;;;979.03;890.93;;;0.10;99.90;;;;;;5033709;28;20456;-82
2022/03/18 06:56:01;;;;;;;979.70;889.95;;;0.30;99.90;;;;;;5033002;28;20472;-83
2022/03/18 06:58:28;;;;;;;1002.87;911.00;;;0.30;99.90;;;;;;5033168;28;20214;-83
2022/03/18 07:00:55;;;;;;;995.43;903.13;;;0.40;99.90;;;;;;5035528;28;20460;-83
2022/03/18 07:03:23;;;;;;;984.13;891.63;;;0.70;99.90;;;;;;5035348;28;21190;-81
2022/03/18 07:05:50;;;;;;;966.93;874.30;;;0.80;99.90;;;;;;5034254;28;20453;-82
2022/03/18 07:08:17;;;;;;;963.70;871.93;;;1.00;99.90;;;;;;5033678;28;20480;-82
2022/03/18 07:10:44;;;;;;;948.70;857.50;;;1.10;99.90;;;;;;5032790;28;20456;-82
2022/03/18 07:13:11;;;;;;;978.73;884.73;;;1.10;99.90;;;;;;5033139;28;20804;-82
2022/03/18 07:15:37;;;;;;;967.07;873.80;;;1.10;99.90;;;;;;5032513;28;20480;-84
2022/03/18 07:18:04;;;;;;;970.93;876.63;;;1.10;99.90;;;;;;5032716;28;20934;-83
2022/03/18 07:20:34;;;;;;;951.97;857.27;;;1.20;99.90;;;;;;5033048;28;20459;-83
2022/03/18 07:23:06;;;;;;;962.80;867.90;;;1.30;99.90;;;;;;5032328;28;20455;-82
2022/03/18 07:25:33;;;;;;;948.23;853.67;;;1.40;99.90;;;;;;5032170;28;20487;-83
2022/03/18 07:28:00;;;;;;;946.60;853.23;;;1.50;99.90;;;;;;5032637;28;20481;-82
2022/03/18 07:30:27;;;;;;;926.93;833.17;;;1.60;99.90;;;;;;5033059;28;20467;-83
2022/03/18 07:32:54;;;;;;;922.30;829.43;;;1.60;99.90;;;;;;5033108;28;20455;-83
2022/03/18 07:35:21;;;;;;;904.93;813.10;;;1.80;99.90;;;;;;5033063;28;20456;-83
2022/03/18 07:37:49;;;;;;;920.83;829.53;;;1.90;99.90;;;;;;5032456;28;20491;-84
2022/03/18 07:40:18;;;;;;;911.07;820.93;;;2.00;99.90;;;;;;5032278;28;20880;-82
2022/03/18 07:42:46;;;;;;;906.17;814.50;;;2.20;99.90;;;;;;5032621;28;20539;-83
2022/03/18 07:45:17;;;;;;;911.17;820.17;;;2.40;99.90;;;;;;5032788;28;20467;-83
2022/03/18 07:47:44;;;;;;;901.30;811.80;;;2.40;99.90;;;;;;5032088;28;20480;-83
2022/03/18 07:50:12;;;;;;;898.93;808.60;;;2.50;99.90;;;;;;5032350;28;20459;-83
2022/03/18 07:52:38;;;;;;;891.80;803.10;;;2.70;99.90;;;;;;5033693;28;20884;-83
2022/03/18 07:55:07;;;;;;;894.93;806.77;;;3.00;99.90;;;;;;5033405;28;20452;-83
2022/03/18 07:57:34;;;;;;;877.37;791.03;;;3.10;99.90;;;;;;5034115;28;20514;-81
2022/03/18 08:00:01;;;;;;;889.90;804.90;;;3.40;99.90;;;;;;5033115;28;20972;-83
2022/03/18 08:02:28;;;;;;;862.23;779.10;;;3.60;99.90;;;;;;5035030;28;20503;-82
2022/03/18 08:04:55;;;;;;;856.80;775.40;;;3.80;99.90;;;;;;5032632;28;20468;-84
2022/03/18 08:07:21;;;;;;;864.00;780.60;;;3.90;99.90;;;;;;5033009;28;20464;-86
2022/03/18 08:09:48;;;;;;;860.90;778.97;;;4.00;99.90;;;;;;5034154;28;20468;-85
2022/03/18 08:12:16;;;;;;;873.07;790.83;;;4.20;99.90;;;;;;5034528;28;20464;-82
2022/03/18 08:14:43;;;;;;;860.67;779.83;;;4.30;99.90;;;;;;5037907;28;20460;-83
2022/03/18 08:17:10;;;;;;;866.40;787.77;;;4.40;99.90;;;;;;5034420;28;20495;-85
2022/03/18 08:19:37;;;;;;;847.00;770.17;;;4.30;99.90;;;;;;5032006;28;20831;-86
2022/03/18 08:22:04;;;;;;;854.73;779.03;;;4.50;99.90;;;;;;5032692;28;20456;-87
2022/03/18 08:24:32;;;;;;;836.10;762.77;;;4.70;99.90;;;;;;5032370;28;20448;-87
2022/03/18 08:26:59;;;;;;;827.97;757.70;;;4.70;99.90;;;;;;5033113;28;20468;-85
2022/03/18 08:29:27;;;;;;;838.60;778.00;;;5.00;99.90;;;;;;5034793;28;20449;-87
2022/03/18 08:31:53;;;;;;;813.73;760.33;;;5.20;99.90;;;;;;5032459;28;20460;-86
2022/03/18 08:34:21;;;;;;;800.13;749.53;;;5.40;99.90;;;;;;5034810;28;20451;-86
2022/03/18 08:36:48;;;;;;;832.37;774.80;;;5.80;99.90;;;;;;5035521;28;20484;-85
2022/03/18 08:39:15;;;;;;;642.60;609.67;;;6.30;99.90;;;;;;5038934;28;20963;-84
2022/03/18 08:41:42;;;;;;;388.20;371.00;;;6.40;99.90;;;;;;5038587;28;20838;-87
2022/03/18 08:44:08;;;;;;;359.57;343.90;;;6.80;99.90;;;;;;5037907;28;20452;-82
2022/03/18 08:46:36;;;;;;;86.97;82.30;;;7.10;99.90;;;;;;5041337;28;20468;-84
2022/03/18 08:49:03;;;;;;;43.33;40.20;;;7.40;99.90;;;;;;5045102;28;20585;-85
2022/03/18 08:51:30;;;;;;;20.97;13.63;;;7.80;99.90;;;;;;5047247;28;20457;-87
2022/03/18 08:53:57;;;;;;;18.10;16.23;;;8.00;98.70;;;;;;5044449;28;20460;-84
2022/03/18 08:56:24;;;;;;;13.87;8.83;;;8.30;90.70;;;;;;5044281;28;20526;-83
2022/03/18 08:58:51;;;;;;;16.13;7.63;;;8.40;89.70;;;;;;5040830;28;20832;-84
2022/03/18 09:01:17;;;;;;;14.10;6.83;;;8.90;94.70;;;;;;5039432;28;20455;-84
2022/03/18 09:03:47;;;;;;;18.90;6.97;;;9.00;86.60;;;;;;5040767;28;20452;-85
2022/03/18 09:06:14;;;;;;;14.40;5.90;;;9.40;78.10;;;;;;5044874;28;20484;-86
2022/03/18 09:08:42;;;;;;;18.23;4.97;;;9.70;71.20;;;;;;5041737;28;20547;-84
2022/03/18 09:11:09;;;;;;;10.97;4.53;;;10.00;67.30;;;;;;5043680;28;20452;-85
2022/03/18 09:13:36;;;;;;;11.30;4.53;;;10.30;57.40;;;;;;5045279;28;20350;-86
2022/03/18 09:16:04;;;;;;;16.33;5.60;;;10.40;55.90;;;;;;5044353;28;20221;-85
2022/03/18 09:18:30;;;;;;;14.43;5.83;;;10.50;48.30;;;;;;5036873;28;20490;-87
2022/03/18 09:20:59;;;;;;;11.70;5.50;;;10.60;46.80;;;;;;5037890;28;20461;-85
2022/03/18 09:23:25;;;;;;;14.23;5.60;;;11.00;47.90;;;;;;5039223;28;20456;-87
2022/03/18 09:25:54;;;;;;;20.40;5.87;;;11.50;45.40;;;;;;5038722;28;20452;-86
2022/03/18 09:28:21;;;;;;;14.10;5.20;;;11.80;45.60;;;;;;5034632;28;21008;-88
2022/03/18 09:30:47;;;;;;;12.68;5.38;;;12.40;40.50;;;;;;5036837;28;20464;-86
2022/03/18 09:33:14;;;;;;;11.83;5.30;;;12.10;35.40;;;;;;5039627;28;20210;-86
2022/03/18 09:35:42;;;;;;;12.17;4.77;;;12.00;39.80;;;;;;5041854;28;20453;-85
2022/03/18 09:38:10;;;;;;;10.30;4.20;;;12.10;42.90;;;;;;5040255;28;20488;-83
2022/03/18 09:40:39;;;;;;;11.53;4.60;;;12.50;34.80;;;;;;5040961;28;20454;-86
2022/03/18 09:43:07;;;;;;;13.90;5.00;;;12.70;35.30;;;;;;5040572;28;20458;-86
2022/03/18 09:45:36;;;;;;;9.30;3.67;;;12.80;37.60;;;;;;5044344;28;20466;-84
2022/03/18 09:48:06;;;;;;;10.87;5.40;;;12.50;34.60;;;;;;5041772;28;20484;-83
2022/03/18 09:50:33;;;;;;;10.27;4.63;;;12.90;37.70;;;;;;5045483;28;20459;-87
2022/03/18 09:53:01;;;;;;;11.40;5.30;;;12.90;36.40;;;;;;5040327;28;20465;-84
2022/03/18 09:55:31;;;;;;;12.67;5.23;;;13.20;31.50;;;;;;5041468;28;20453;-86
2022/03/18 09:57:58;;;;;;;17.23;5.27;;;13.40;27.50;;;;;;5042340;28;20888;-86
2022/03/18 10:00:25;;;;;;;12.40;4.60;;;14.00;24.00;;;;;;5038476;28;20460;-86
2022/03/18 10:03:07;;;;;;;8.93;3.93;;;14.40;21.70;;;;;;5037288;28;20454;-86
2022/03/18 10:05:34;;;;;;;8.53;4.30;;;14.50;19.20;;;;;;5037228;28;20460;-86
2022/03/18 10:08:01;;;;;;;5.83;2.53;;;14.70;20.80;;;;;;5037766;28;20486;-84
2022/03/18 10:10:30;;;;;;;7.70;2.93;;;15.10;19.50;;;;;;5037723;28;20458;-83
2022/03/18 10:13:01;;;;;;;12.50;2.50;;;14.90;16.20;;;;;;5039653;28;20462;-81
2022/03/18 10:15:28;;;;;;;8.75;3.10;;;14.40;15.90;;;;;;5039908;28;20465;-84
2022/03/18 10:17:57;;;;;;;11.20;3.33;;;14.50;17.70;;;;;;5038954;28;20238;-83
2022/03/18 10:20:32;;;;;;;6.27;2.50;;;14.90;16.10;;;;;;5040666;28;20457;-84
2022/03/18 10:23:04;;;;;;;8.73;2.23;;;14.20;10.60;;;;;;5039301;28;20508;-83
2022/03/18 10:25:39;;;;;;;9.93;2.87;;;14.80;12.50;;;;;;5042060;28;20463;-84
2022/03/18 10:28:06;;;;;;;5.33;1.93;;;14.60;12.60;;;;;;5040562;28;20480;-82
2022/03/18 10:30:33;;;;;;;6.03;2.40;;;14.40;9.60;;;;;;5039040;28;20470;-84
2022/03/18 10:33:00;;;;;;;7.83;2.40;;;14.50;12.00;;;;;;5040816;28;20525;-83
2022/03/18 10:38:30;;;;;;;10.90;2.53;;;15.60;7.80;;;;;;5036951;28;20482;-83
2022/03/18 10:40:59;;;;;;;9.40;2.40;;;15.20;9.90;;;;;;5038874;28;20513;-84
2022/03/18 10:43:26;;;;;;;5.30;1.80;;;15.40;6.10;;;;;;5037438;28;20560;-83
2022/03/18 10:46:01;;;;;;;6.13;2.40;;;15.40;4.90;;;;;;5040636;28;20906;-83
2022/03/18 10:48:27;;;;;;;6.60;1.57;;;15.30;4.40;;;;;;5039876;28;20841;-84
2022/03/18 10:51:04;;;;;;;7.50;2.13;;;15.70;2.20;;;;;;5038250;28;20465;-84
2022/03/18 10:53:32;;;;;;;5.10;1.90;;;15.90;1.60;;;;;;5035287;28;20461;-83
2022/03/18 10:56:02;;;;;;;9.83;2.60;;;16.30;1.00;;;;;;5036396;28;20880;-84
2022/03/18 10:58:31;;;;;;;5.40;1.90;;;16.50;2.10;;;;;;5038976;28;20469;-84
2022/03/18 11:01:01;;;;;;;7.53;2.83;;;16.20;3.60;;;;;;5040700;28;20453;-84
2022/03/18 11:03:28;;;;;;;7.43;2.43;;;16.20;3.60;;;;;;5039397;28;20461;-84
2022/03/18 11:05:55;;;;;;;9.20;2.33;;;15.90;1.00;;;;;;5040766;28;20927;-84
2022/03/18 11:08:23;;;;;;;7.30;2.73;;;16.20;1.00;;;;;;5039620;28;20479;-84
2022/03/18 11:13:46;;;;;;;6.13;2.07;;;16.50;1.00;;;;;;5041701;28;20440;-84
2022/03/18 11:16:14;;;;;;;5.93;2.10;;;15.90;1.00;;;;;;5041193;28;20458;-84
2022/03/18 11:18:43;;;;;;;6.17;2.20;;;16.40;1.00;;;;;;5037135;28;20454;-84
2022/03/18 11:21:11;;;;;;;7.43;3.00;;;17.00;1.00;;;;;;5040282;28;20457;-84
2022/03/18 11:23:39;;;;;;;6.30;2.43;;;16.50;1.00;;;;;;5038593;28;20449;-83
2022/03/18 11:26:07;;;;;;;6.60;2.60;;;16.80;1.00;;;;;;5040411;28;20460;-84
2022/03/18 11:28:34;;;;;;;7.60;2.60;;;16.70;1.00;;;;;;5039120;28;20479;-84
2022/03/18 11:31:06;;;;;;;9.77;2.93;;;17.10;1.00;;;;;;5039202;28;20469;-83
2022/03/18 11:33:33;;;;;;;6.33;2.30;;;17.00;1.00;;;;;;5034036;28;20448;-89
2022/03/18 11:36:12;;;;;;;5.90;2.07;;;17.20;1.00;;;;;;5032125;28;20954;-88
2022/03/18 11:39:06;;;;;;;10.57;2.33;;;16.60;1.00;;;;;;5033280;28;20455;-85
2022/03/18 11:41:51;;;;;;;8.03;2.07;;;16.90;1.00;;;;;;5038600;28;20455;-87
2022/03/18 11:44:46;;;;;;;7.33;2.30;;;17.20;1.00;;;;;;5038612;28;20455;-86
2022/03/18 11:47:41;;;;;;;5.30;2.07;;;17.20;1.00;;;;;;5036299;28;20480;-86
2022/03/18 11:50:43;;;;;;;7.90;2.37;;;17.60;1.00;;;;;;5034855;28;20461;-85
2022/03/18 11:53:13;;;;;;;7.40;2.10;;;17.70;1.00;;;;;;5034925;28;20455;-85
2022/03/18 11:55:43;;;;;;;5.90;2.03;;;17.80;1.00;;;;;;5039860;28;20448;-85
2022/03/18 11:58:27;;;;;;;5.50;1.60;;;17.90;1.00;;;;;;5040516;28;20468;-86
2022/03/18 12:00:54;;;;;;;5.80;2.70;;;17.00;1.00;;;;;;5037906;28;20490;-85
2022/03/18 12:03:28;;;;;;;7.57;3.03;;;17.20;1.00;;;;;;5038593;28;20456;-85
2022/03/18 12:05:59;;;;;;;6.33;2.40;;;17.70;1.00;;;;;;5040559;28;20453;-85
2022/03/18 12:08:55;;;;;;;8.93;2.73;;;18.00;1.00;;;;;;5041152;28;20484;-85
2022/03/18 12:11:25;;;;;;;5.57;1.50;;;17.70;1.00;;;;;;5042474;28;20461;-85
2022/03/18 12:13:52;;;;;;;24.70;4.70;;;17.80;1.00;;;;;;5042129;28;20455;-85
2022/03/18 12:16:27;;;;;;;8.47;2.63;;;17.80;1.00;;;;;;5041474;28;20452;-85
2022/03/18 12:19:21;;;;;;;7.50;3.20;;;18.10;1.00;;;;;;5038471;28;20944;-86
2022/03/18 12:21:50;;;;;;;5.73;2.30;;;18.50;1.00;;;;;;5037815;28;20450;-86
2022/03/18 12:24:17;;;;;;;5.50;2.40;;;18.50;1.00;;;;;;5035790;28;20455;-87
2022/03/18 12:26:43;;;;;;;5.40;1.90;;;18.40;1.00;;;;;;5035328;28;20501;-87
2022/03/18 12:29:18;;;;;;;7.20;2.37;;;17.70;1.00;;;;;;5034818;28;20458;-85
2022/03/18 12:31:44;;;;;;;5.90;2.37;;;18.00;1.00;;;;;;5035761;28;20461;-85
2022/03/18 12:34:14;;;;;;;8.63;2.00;;;17.80;1.00;;;;;;5036776;28;20461;-85
2022/03/18 12:39:20;;;;;;;6.10;2.53;;;18.60;1.00;;;;;;5021767;28;20454;-84
2022/03/18 12:41:50;;;;;;;7.30;2.70;;;19.10;1.00;;;;;;5025521;28;20503;-85
2022/03/18 12:44:34;;;;;;;6.23;2.57;;;18.70;1.00;;;;;;5024867;28;20450;-85
2022/03/18 12:47:08;;;;;;;5.60;2.30;;;17.70;1.00;;;;;;5025192;28;20843;-85
2022/03/18 12:49:39;;;;;;;9.63;2.17;;;18.80;1.00;;;;;;5024310;28;20456;-85
2022/03/18 12:52:12;;;;;;;6.23;2.00;;;19.10;1.00;;;;;;5024712;28;20949;-86
2022/03/18 12:54:39;;;;;;;6.90;1.80;;;19.20;1.00;;;;;;5020759;28;20956;-84